sensor_id;sensor_type;location;lat;lon;timestamp;P1;durP1;ratioP1;P2;durP2;ratioP2
50709;SDS011;37033;49.994;21.992;2022-12-20T00:01:44;11.90;;;6.40;;
50709;SDS011;37033;49.994;21.992;2022-12-20T00:04:33;15.00;;;6.60;;
50709;SDS011;37033;49.994;21.992;2022-12-20T00:07:23;12.30;;;6.70;;
50709;SDS011;37033;49.994;21.992;2022-12-20T00:10:13;14.50;;;5.70;;
50709;SDS011;37033;49.994;21.992;2022-12-20T00:13:03;14.90;;;6.30;;
50709;SDS011;37033;49.994;21.992;2022-12-20T00:16:03;8.30;;;5.00;;
50709;SDS011;37033;49.994;21.992;2022-12-20T00:18:56;11.00;;;6.40;;
50709;SDS011;37033;49.994;21.992;2022-12-20T00:21:47;8.80;;;5.20;;
50709;SDS011;37033;49.994;21.992;2022-12-20T00:24:37;9.90;;;5.50;;
50709;SDS011;37033;49.994;21.992;2022-12-20T00:27:27;13.70;;;6.80;;
50709;SDS011;37033;49.994;21.992;2022-12-20T00:30:17;11.50;;;6.20;;
50709;SDS011;37033;49.994;21.992;2022-12-20T00:33:07;12.00;;;6.00;;
50709;SDS011;37033;49.994;21.992;2022-12-20T00:35:57;14.80;;;6.10;;
50709;SDS011;37033;49.994;21.992;2022-12-20T00:38:48;10.10;;;6.30;;
50709;SDS011;37033;49.994;21.992;2022-12-20T00:41:40;14.90;;;7.60;;
50709;SDS011;37033;49.994;21.992;2022-12-20T00:44:30;12.70;;;7.50;;
50709;SDS011;37033;49.994;21.992;2022-12-20T00:47:20;12.90;;;7.10;;
50709;SDS011;37033;49.994;21.992;2022-12-20T00:50:10;11.40;;;5.70;;
50709;SDS011;37033;49.994;21.992;2022-12-20T00:53:01;11.00;;;6.40;;
50709;SDS011;37033;49.994;21.992;2022-12-20T00:55:51;16.10;;;6.40;;
50709;SDS011;37033;49.994;21.992;2022-12-20T00:58:41;11.90;;;6.60;;
50709;SDS011;37033;49.994;21.992;2022-12-20T01:01:32;11.80;;;5.70;;
50709;SDS011;37033;49.994;21.992;2022-12-20T01:04:22;12.40;;;5.80;;
50709;SDS011;37033;49.994;21.992;2022-12-20T01:07:12;12.40;;;6.50;;
50709;SDS011;37033;49.994;21.992;2022-12-20T01:10:02;13.70;;;5.90;;
50709;SDS011;37033;49.994;21.992;2022-12-20T01:12:53;11.40;;;5.90;;
50709;SDS011;37033;49.994;21.992;2022-12-20T01:15:43;13.00;;;6.00;;
50709;SDS011;37033;49.994;21.992;2022-12-20T01:18:33;9.90;;;5.80;;
50709;SDS011;37033;49.994;21.992;2022-12-20T01:21:24;13.80;;;7.00;;
50709;SDS011;37033;49.994;21.992;2022-12-20T01:24:16;9.40;;;6.20;;
50709;SDS011;37033;49.994;21.992;2022-12-20T01:27:06;11.40;;;5.90;;
50709;SDS011;37033;49.994;21.992;2022-12-20T01:29:56;11.00;;;7.00;;
50709;SDS011;37033;49.994;21.992;2022-12-20T01:32:46;8.70;;;5.50;;
50709;SDS011;37033;49.994;21.992;2022-12-20T01:35:36;10.90;;;6.00;;
50709;SDS011;37033;49.994;21.992;2022-12-20T01:38:26;11.80;;;5.50;;
50709;SDS011;37033;49.994;21.992;2022-12-20T01:41:17;11.40;;;5.90;;
50709;SDS011;37033;49.994;21.992;2022-12-20T01:47:29;12.50;;;6.30;;
50709;SDS011;37033;49.994;21.992;2022-12-20T01:50:22;9.90;;;5.30;;
50709;SDS011;37033;49.994;21.992;2022-12-20T01:53:13;8.70;;;5.50;;
50709;SDS011;37033;49.994;21.992;2022-12-20T01:56:05;13.50;;;6.90;;
50709;SDS011;37033;49.994;21.992;2022-12-20T01:58:56;10.60;;;5.80;;
50709;SDS011;37033;49.994;21.992;2022-12-20T02:01:48;10.50;;;6.20;;
50709;SDS011;37033;49.994;21.992;2022-12-20T02:04:38;9.10;;;5.30;;
50709;SDS011;37033;49.994;21.992;2022-12-20T02:07:28;9.30;;;5.20;;
50709;SDS011;37033;49.994;21.992;2022-12-20T02:10:23;12.60;;;5.20;;
50709;SDS011;37033;49.994;21.992;2022-12-20T02:13:23;9.60;;;5.40;;
50709;SDS011;37033;49.994;21.992;2022-12-20T02:16:29;11.20;;;5.80;;
50709;SDS011;37033;49.994;21.992;2022-12-20T02:19:39;10.00;;;5.70;;
50709;SDS011;37033;49.994;21.992;2022-12-20T02:22:52;10.90;;;5.50;;
50709;SDS011;37033;49.994;21.992;2022-12-20T02:26:05;10.10;;;5.30;;
50709;SDS011;37033;49.994;21.992;2022-12-20T02:29:12;13.10;;;6.10;;
50709;SDS011;37033;49.994;21.992;2022-12-20T02:32:13;7.90;;;4.80;;
50709;SDS011;37033;49.994;21.992;2022-12-20T02:37:58;11.80;;;5.60;;
50709;SDS011;37033;49.994;21.992;2022-12-20T02:40:53;12.00;;;6.10;;
50709;SDS011;37033;49.994;21.992;2022-12-20T02:43:47;10.40;;;5.40;;
50709;SDS011;37033;49.994;21.992;2022-12-20T02:47:00;13.70;;;7.00;;
50709;SDS011;37033;49.994;21.992;2022-12-20T02:49:53;10.80;;;7.00;;
50709;SDS011;37033;49.994;21.992;2022-12-20T02:52:44;10.90;;;5.50;;
50709;SDS011;37033;49.994;21.992;2022-12-20T02:55:37;8.90;;;5.40;;
50709;SDS011;37033;49.994;21.992;2022-12-20T02:58:35;8.70;;;5.40;;
50709;SDS011;37033;49.994;21.992;2022-12-20T03:01:30;9.60;;;5.80;;
50709;SDS011;37033;49.994;21.992;2022-12-20T03:04:23;12.40;;;5.90;;
50709;SDS011;37033;49.994;21.992;2022-12-20T03:07:16;10.80;;;5.60;;
50709;SDS011;37033;49.994;21.992;2022-12-20T03:10:07;12.50;;;6.20;;
50709;SDS011;37033;49.994;21.992;2022-12-20T03:12:57;12.70;;;6.20;;
50709;SDS011;37033;49.994;21.992;2022-12-20T03:15:47;12.40;;;5.10;;
50709;SDS011;37033;49.994;21.992;2022-12-20T03:18:37;10.90;;;6.40;;
50709;SDS011;37033;49.994;21.992;2022-12-20T03:21:27;12.60;;;6.40;;
50709;SDS011;37033;49.994;21.992;2022-12-20T03:24:17;11.40;;;6.30;;
50709;SDS011;37033;49.994;21.992;2022-12-20T03:27:07;10.70;;;6.20;;
50709;SDS011;37033;49.994;21.992;2022-12-20T03:29:57;9.20;;;5.60;;
50709;SDS011;37033;49.994;21.992;2022-12-20T03:32:47;11.70;;;5.90;;
50709;SDS011;37033;49.994;21.992;2022-12-20T03:35:37;11.80;;;6.40;;
50709;SDS011;37033;49.994;21.992;2022-12-20T03:38:27;11.10;;;5.60;;
50709;SDS011;37033;49.994;21.992;2022-12-20T03:41:17;17.10;;;7.00;;
50709;SDS011;37033;49.994;21.992;2022-12-20T03:44:09;8.20;;;5.60;;
50709;SDS011;37033;49.994;21.992;2022-12-20T03:46:59;14.50;;;7.30;;
50709;SDS011;37033;49.994;21.992;2022-12-20T03:49:49;10.40;;;5.80;;
50709;SDS011;37033;49.994;21.992;2022-12-20T03:52:39;14.40;;;6.30;;
50709;SDS011;37033;49.994;21.992;2022-12-20T03:55:29;15.70;;;7.10;;
50709;SDS011;37033;49.994;21.992;2022-12-20T03:58:19;12.30;;;6.00;;
50709;SDS011;37033;49.994;21.992;2022-12-20T04:01:19;16.50;;;8.30;;
50709;SDS011;37033;49.994;21.992;2022-12-20T04:04:11;17.30;;;7.50;;
50709;SDS011;37033;49.994;21.992;2022-12-20T04:07:02;14.80;;;6.70;;
50709;SDS011;37033;49.994;21.992;2022-12-20T04:09:52;14.70;;;8.40;;
50709;SDS011;37033;49.994;21.992;2022-12-20T04:12:42;18.20;;;8.00;;
50709;SDS011;37033;49.994;21.992;2022-12-20T04:15:32;10.80;;;6.40;;
50709;SDS011;37033;49.994;21.992;2022-12-20T04:18:22;13.10;;;7.70;;
50709;SDS011;37033;49.994;21.992;2022-12-20T04:21:12;13.20;;;7.10;;
50709;SDS011;37033;49.994;21.992;2022-12-20T04:24:03;10.20;;;5.80;;
50709;SDS011;37033;49.994;21.992;2022-12-20T04:26:53;12.20;;;6.60;;
50709;SDS011;37033;49.994;21.992;2022-12-20T04:29:43;17.70;;;8.20;;
50709;SDS011;37033;49.994;21.992;2022-12-20T04:32:34;11.80;;;7.00;;
50709;SDS011;37033;49.994;21.992;2022-12-20T04:35:24;12.70;;;7.30;;
50709;SDS011;37033;49.994;21.992;2022-12-20T04:38:14;14.30;;;8.00;;
50709;SDS011;37033;49.994;21.992;2022-12-20T04:41:05;13.10;;;7.50;;
50709;SDS011;37033;49.994;21.992;2022-12-20T04:43:56;14.60;;;5.90;;
50709;SDS011;37033;49.994;21.992;2022-12-20T04:46:46;16.60;;;7.90;;
50709;SDS011;37033;49.994;21.992;2022-12-20T04:49:36;14.80;;;7.40;;
50709;SDS011;37033;49.994;21.992;2022-12-20T04:52:26;22.80;;;12.80;;
50709;SDS011;37033;49.994;21.992;2022-12-20T04:55:37;13.50;;;7.60;;
50709;SDS011;37033;49.994;21.992;2022-12-20T04:58:27;16.20;;;8.60;;
50709;SDS011;37033;49.994;21.992;2022-12-20T05:01:17;19.40;;;8.20;;
50709;SDS011;37033;49.994;21.992;2022-12-20T05:04:08;16.10;;;8.30;;
50709;SDS011;37033;49.994;21.992;2022-12-20T05:06:58;13.00;;;7.70;;
50709;SDS011;37033;49.994;21.992;2022-12-20T05:09:48;16.30;;;7.70;;
50709;SDS011;37033;49.994;21.992;2022-12-20T05:12:38;13.80;;;7.60;;
50709;SDS011;37033;49.994;21.992;2022-12-20T05:15:28;13.90;;;8.40;;
50709;SDS011;37033;49.994;21.992;2022-12-20T05:18:18;11.60;;;7.20;;
50709;SDS011;37033;49.994;21.992;2022-12-20T05:21:09;12.20;;;6.90;;
50709;SDS011;37033;49.994;21.992;2022-12-20T05:24:16;14.60;;;7.10;;
50709;SDS011;37033;49.994;21.992;2022-12-20T05:27:25;14.70;;;7.20;;
50709;SDS011;37033;49.994;21.992;2022-12-20T05:30:14;14.60;;;7.90;;
50709;SDS011;37033;49.994;21.992;2022-12-20T05:33:04;13.40;;;7.20;;
50709;SDS011;37033;49.994;21.992;2022-12-20T05:35:55;14.90;;;7.30;;
50709;SDS011;37033;49.994;21.992;2022-12-20T05:38:45;14.00;;;7.20;;
50709;SDS011;37033;49.994;21.992;2022-12-20T05:41:36;18.20;;;8.60;;
50709;SDS011;37033;49.994;21.992;2022-12-20T05:44:26;14.60;;;7.90;;
50709;SDS011;37033;49.994;21.992;2022-12-20T05:47:16;12.90;;;7.40;;
50709;SDS011;37033;49.994;21.992;2022-12-20T05:50:08;13.30;;;6.90;;
50709;SDS011;37033;49.994;21.992;2022-12-20T05:52:58;16.40;;;8.10;;
50709;SDS011;37033;49.994;21.992;2022-12-20T05:55:48;11.30;;;5.60;;
50709;SDS011;37033;49.994;21.992;2022-12-20T05:58:40;14.40;;;7.70;;
50709;SDS011;37033;49.994;21.992;2022-12-20T06:01:29;12.60;;;7.10;;
50709;SDS011;37033;49.994;21.992;2022-12-20T06:04:19;15.30;;;7.20;;
50709;SDS011;37033;49.994;21.992;2022-12-20T06:07:09;16.20;;;7.60;;
50709;SDS011;37033;49.994;21.992;2022-12-20T06:09:59;16.10;;;6.90;;
50709;SDS011;37033;49.994;21.992;2022-12-20T06:12:49;14.60;;;7.70;;
50709;SDS011;37033;49.994;21.992;2022-12-20T06:15:39;17.80;;;8.40;;
50709;SDS011;37033;49.994;21.992;2022-12-20T06:18:29;16.60;;;7.90;;
50709;SDS011;37033;49.994;21.992;2022-12-20T06:21:20;22.50;;;7.10;;
50709;SDS011;37033;49.994;21.992;2022-12-20T06:24:10;16.90;;;7.80;;
50709;SDS011;37033;49.994;21.992;2022-12-20T06:27:00;15.20;;;8.40;;
50709;SDS011;37033;49.994;21.992;2022-12-20T06:29:50;14.00;;;7.00;;
50709;SDS011;37033;49.994;21.992;2022-12-20T06:32:40;11.20;;;7.20;;
50709;SDS011;37033;49.994;21.992;2022-12-20T06:35:30;13.70;;;6.80;;
50709;SDS011;37033;49.994;21.992;2022-12-20T06:38:20;15.80;;;8.70;;
50709;SDS011;37033;49.994;21.992;2022-12-20T06:41:11;20.00;;;8.20;;
50709;SDS011;37033;49.994;21.992;2022-12-20T06:44:00;15.90;;;6.70;;
50709;SDS011;37033;49.994;21.992;2022-12-20T06:46:50;14.90;;;7.50;;
50709;SDS011;37033;49.994;21.992;2022-12-20T06:49:40;12.20;;;7.60;;
50709;SDS011;37033;49.994;21.992;2022-12-20T06:52:30;13.40;;;7.80;;
50709;SDS011;37033;49.994;21.992;2022-12-20T06:55:20;14.90;;;8.50;;
50709;SDS011;37033;49.994;21.992;2022-12-20T06:58:10;18.30;;;8.30;;
50709;SDS011;37033;49.994;21.992;2022-12-20T07:01:00;16.40;;;8.20;;
50709;SDS011;37033;49.994;21.992;2022-12-20T07:03:50;15.40;;;8.30;;
50709;SDS011;37033;49.994;21.992;2022-12-20T07:06:40;14.10;;;7.50;;
50709;SDS011;37033;49.994;21.992;2022-12-20T07:09:30;17.80;;;7.70;;
50709;SDS011;37033;49.994;21.992;2022-12-20T07:12:21;14.50;;;8.90;;
50709;SDS011;37033;49.994;21.992;2022-12-20T07:15:11;13.00;;;7.70;;
50709;SDS011;37033;49.994;21.992;2022-12-20T07:18:01;15.80;;;7.70;;
50709;SDS011;37033;49.994;21.992;2022-12-20T07:20:52;15.00;;;7.20;;
50709;SDS011;37033;49.994;21.992;2022-12-20T07:23:45;12.90;;;7.30;;
50709;SDS011;37033;49.994;21.992;2022-12-20T07:26:35;17.60;;;8.20;;
50709;SDS011;37033;49.994;21.992;2022-12-20T07:29:25;14.70;;;7.80;;
50709;SDS011;37033;49.994;21.992;2022-12-20T07:32:15;20.20;;;9.90;;
50709;SDS011;37033;49.994;21.992;2022-12-20T07:35:06;18.20;;;8.50;;
50709;SDS011;37033;49.994;21.992;2022-12-20T07:37:57;12.20;;;7.80;;
50709;SDS011;37033;49.994;21.992;2022-12-20T07:40:47;14.20;;;7.80;;
50709;SDS011;37033;49.994;21.992;2022-12-20T07:43:37;12.70;;;6.60;;
50709;SDS011;37033;49.994;21.992;2022-12-20T07:46:27;13.90;;;6.70;;
50709;SDS011;37033;49.994;21.992;2022-12-20T07:49:17;13.50;;;7.10;;
50709;SDS011;37033;49.994;21.992;2022-12-20T07:52:08;18.30;;;8.70;;
50709;SDS011;37033;49.994;21.992;2022-12-20T07:55:01;12.80;;;8.30;;
50709;SDS011;37033;49.994;21.992;2022-12-20T07:57:54;30.50;;;13.50;;
50709;SDS011;37033;49.994;21.992;2022-12-20T08:00:48;23.40;;;11.50;;
50709;SDS011;37033;49.994;21.992;2022-12-20T08:03:39;18.60;;;8.70;;
50709;SDS011;37033;49.994;21.992;2022-12-20T08:06:36;12.30;;;7.00;;
50709;SDS011;37033;49.994;21.992;2022-12-20T08:09:29;16.60;;;8.80;;
50709;SDS011;37033;49.994;21.992;2022-12-20T08:12:23;13.00;;;8.20;;
50709;SDS011;37033;49.994;21.992;2022-12-20T08:15:17;21.40;;;8.70;;
50709;SDS011;37033;49.994;21.992;2022-12-20T08:18:08;13.60;;;7.90;;
50709;SDS011;37033;49.994;21.992;2022-12-20T08:20:58;13.80;;;7.20;;
50709;SDS011;37033;49.994;21.992;2022-12-20T08:23:48;14.00;;;7.50;;
50709;SDS011;37033;49.994;21.992;2022-12-20T08:26:39;11.50;;;6.90;;
50709;SDS011;37033;49.994;21.992;2022-12-20T08:29:29;13.70;;;7.20;;
50709;SDS011;37033;49.994;21.992;2022-12-20T08:32:19;15.80;;;7.50;;
50709;SDS011;37033;49.994;21.992;2022-12-20T08:35:09;12.90;;;7.80;;
50709;SDS011;37033;49.994;21.992;2022-12-20T08:37:59;15.70;;;7.70;;
50709;SDS011;37033;49.994;21.992;2022-12-20T08:40:49;14.50;;;8.10;;
50709;SDS011;37033;49.994;21.992;2022-12-20T08:43:39;16.10;;;7.20;;
50709;SDS011;37033;49.994;21.992;2022-12-20T08:46:30;18.10;;;9.20;;
50709;SDS011;37033;49.994;21.992;2022-12-20T08:49:20;18.50;;;7.10;;
50709;SDS011;37033;49.994;21.992;2022-12-20T08:52:10;13.50;;;7.30;;
50709;SDS011;37033;49.994;21.992;2022-12-20T08:55:00;16.10;;;7.90;;
50709;SDS011;37033;49.994;21.992;2022-12-20T08:57:51;12.10;;;7.30;;
50709;SDS011;37033;49.994;21.992;2022-12-20T09:00:41;13.10;;;7.70;;
50709;SDS011;37033;49.994;21.992;2022-12-20T09:03:32;7.80;;;5.90;;
50709;SDS011;37033;49.994;21.992;2022-12-20T09:06:22;29.30;;;12.10;;
50709;SDS011;37033;49.994;21.992;2022-12-20T09:09:12;23.00;;;11.20;;
50709;SDS011;37033;49.994;21.992;2022-12-20T09:12:03;13.00;;;6.60;;
50709;SDS011;37033;49.994;21.992;2022-12-20T09:14:54;16.40;;;8.80;;
50709;SDS011;37033;49.994;21.992;2022-12-20T09:17:44;17.20;;;7.50;;
50709;SDS011;37033;49.994;21.992;2022-12-20T09:20:35;14.10;;;6.90;;
50709;SDS011;37033;49.994;21.992;2022-12-20T09:23:30;17.00;;;8.00;;
50709;SDS011;37033;49.994;21.992;2022-12-20T09:26:23;14.20;;;7.70;;
50709;SDS011;37033;49.994;21.992;2022-12-20T09:29:13;14.70;;;7.90;;
50709;SDS011;37033;49.994;21.992;2022-12-20T09:32:03;13.40;;;7.40;;
50709;SDS011;37033;49.994;21.992;2022-12-20T09:34:54;12.50;;;7.10;;
50709;SDS011;37033;49.994;21.992;2022-12-20T09:37:44;13.60;;;7.40;;
50709;SDS011;37033;49.994;21.992;2022-12-20T09:40:34;13.60;;;7.30;;
50709;SDS011;37033;49.994;21.992;2022-12-20T09:43:25;15.50;;;7.70;;
50709;SDS011;37033;49.994;21.992;2022-12-20T09:46:15;13.60;;;7.30;;
50709;SDS011;37033;49.994;21.992;2022-12-20T09:49:07;14.30;;;7.20;;
50709;SDS011;37033;49.994;21.992;2022-12-20T09:52:06;14.10;;;7.40;;
50709;SDS011;37033;49.994;21.992;2022-12-20T09:55:13;13.90;;;8.10;;
50709;SDS011;37033;49.994;21.992;2022-12-20T09:58:22;12.40;;;7.10;;
50709;SDS011;37033;49.994;21.992;2022-12-20T10:01:20;10.90;;;6.20;;
50709;SDS011;37033;49.994;21.992;2022-12-20T10:04:14;14.30;;;7.10;;
50709;SDS011;37033;49.994;21.992;2022-12-20T10:07:12;13.20;;;7.10;;
50709;SDS011;37033;49.994;21.992;2022-12-20T10:10:26;16.60;;;8.00;;
50709;SDS011;37033;49.994;21.992;2022-12-20T10:13:34;13.20;;;7.10;;
50709;SDS011;37033;49.994;21.992;2022-12-20T10:16:32;14.10;;;6.90;;
50709;SDS011;37033;49.994;21.992;2022-12-20T10:19:32;16.00;;;8.10;;
50709;SDS011;37033;49.994;21.992;2022-12-20T10:25:28;11.30;;;7.20;;
50709;SDS011;37033;49.994;21.992;2022-12-20T10:28:19;13.60;;;7.60;;
50709;SDS011;37033;49.994;21.992;2022-12-20T10:31:13;13.40;;;7.40;;
50709;SDS011;37033;49.994;21.992;2022-12-20T10:34:04;16.70;;;7.90;;
50709;SDS011;37033;49.994;21.992;2022-12-20T10:40:01;14.00;;;7.60;;
50709;SDS011;37033;49.994;21.992;2022-12-20T10:42:52;14.80;;;6.80;;
50709;SDS011;37033;49.994;21.992;2022-12-20T10:45:43;9.40;;;6.40;;
50709;SDS011;37033;49.994;21.992;2022-12-20T10:48:43;12.40;;;7.30;;
50709;SDS011;37033;49.994;21.992;2022-12-20T10:51:33;16.50;;;8.00;;
50709;SDS011;37033;49.994;21.992;2022-12-20T10:54:24;17.30;;;7.40;;
50709;SDS011;37033;49.994;21.992;2022-12-20T10:57:19;15.30;;;8.90;;
50709;SDS011;37033;49.994;21.992;2022-12-20T11:00:20;13.80;;;8.00;;
50709;SDS011;37033;49.994;21.992;2022-12-20T11:03:17;11.90;;;5.90;;
50709;SDS011;37033;49.994;21.992;2022-12-20T11:06:14;14.90;;;7.70;;
50709;SDS011;37033;49.994;21.992;2022-12-20T11:12:16;15.00;;;6.80;;
50709;SDS011;37033;49.994;21.992;2022-12-20T11:15:08;13.20;;;7.00;;
50709;SDS011;37033;49.994;21.992;2022-12-20T11:18:07;13.20;;;8.00;;
50709;SDS011;37033;49.994;21.992;2022-12-20T11:21:07;13.00;;;6.90;;
50709;SDS011;37033;49.994;21.992;2022-12-20T11:24:10;11.10;;;6.40;;
50709;SDS011;37033;49.994;21.992;2022-12-20T11:27:12;13.20;;;7.60;;
50709;SDS011;37033;49.994;21.992;2022-12-20T11:30:11;11.40;;;6.70;;
50709;SDS011;37033;49.994;21.992;2022-12-20T11:33:09;13.60;;;6.60;;
50709;SDS011;37033;49.994;21.992;2022-12-20T11:36:12;11.00;;;6.50;;
50709;SDS011;37033;49.994;21.992;2022-12-20T11:39:12;11.50;;;7.10;;
50709;SDS011;37033;49.994;21.992;2022-12-20T11:42:11;10.30;;;6.10;;
50709;SDS011;37033;49.994;21.992;2022-12-20T11:45:09;14.00;;;7.50;;
50709;SDS011;37033;49.994;21.992;2022-12-20T11:48:15;16.00;;;6.40;;
50709;SDS011;37033;49.994;21.992;2022-12-20T11:51:22;12.10;;;6.90;;
50709;SDS011;37033;49.994;21.992;2022-12-20T11:54:18;11.40;;;7.10;;
50709;SDS011;37033;49.994;21.992;2022-12-20T11:57:14;14.30;;;7.40;;
50709;SDS011;37033;49.994;21.992;2022-12-20T12:00:12;10.60;;;6.70;;
50709;SDS011;37033;49.994;21.992;2022-12-20T12:03:15;11.90;;;6.50;;
50709;SDS011;37033;49.994;21.992;2022-12-20T12:06:16;14.40;;;7.70;;
50709;SDS011;37033;49.994;21.992;2022-12-20T12:09:14;11.70;;;6.50;;
50709;SDS011;37033;49.994;21.992;2022-12-20T12:12:13;12.00;;;6.30;;
50709;SDS011;37033;49.994;21.992;2022-12-20T12:15:15;11.50;;;6.60;;
50709;SDS011;37033;49.994;21.992;2022-12-20T12:18:13;11.90;;;6.90;;
50709;SDS011;37033;49.994;21.992;2022-12-20T12:21:07;14.60;;;7.00;;
50709;SDS011;37033;49.994;21.992;2022-12-20T12:24:04;12.40;;;7.70;;
50709;SDS011;37033;49.994;21.992;2022-12-20T12:27:06;14.70;;;7.10;;
50709;SDS011;37033;49.994;21.992;2022-12-20T12:32:51;13.70;;;6.10;;
50709;SDS011;37033;49.994;21.992;2022-12-20T12:35:49;9.60;;;6.50;;
50709;SDS011;37033;49.994;21.992;2022-12-20T12:42:28;12.90;;;7.40;;
50709;SDS011;37033;49.994;21.992;2022-12-20T12:45:39;12.00;;;7.00;;
50709;SDS011;37033;49.994;21.992;2022-12-20T12:48:34;16.30;;;8.10;;
50709;SDS011;37033;49.994;21.992;2022-12-20T12:51:28;14.40;;;7.80;;
50709;SDS011;37033;49.994;21.992;2022-12-20T12:54:22;14.70;;;7.50;;
50709;SDS011;37033;49.994;21.992;2022-12-20T12:57:16;13.70;;;7.70;;
50709;SDS011;37033;49.994;21.992;2022-12-20T13:00:17;11.80;;;6.60;;
50709;SDS011;37033;49.994;21.992;2022-12-20T13:03:44;17.20;;;7.50;;
50709;SDS011;37033;49.994;21.992;2022-12-20T13:06:56;15.40;;;8.00;;
50709;SDS011;37033;49.994;21.992;2022-12-20T13:09:50;10.50;;;6.70;;
50709;SDS011;37033;49.994;21.992;2022-12-20T13:16:12;10.40;;;6.70;;
50709;SDS011;37033;49.994;21.992;2022-12-20T13:19:17;14.50;;;8.30;;
50709;SDS011;37033;49.994;21.992;2022-12-20T13:22:21;16.40;;;6.90;;
50709;SDS011;37033;49.994;21.992;2022-12-20T13:31:34;13.40;;;6.50;;
50709;SDS011;37033;49.994;21.992;2022-12-20T13:34:37;17.70;;;8.20;;
50709;SDS011;37033;49.994;21.992;2022-12-20T13:37:51;14.30;;;7.90;;
50709;SDS011;37033;49.994;21.992;2022-12-20T13:40:44;13.50;;;7.40;;
50709;SDS011;37033;49.994;21.992;2022-12-20T13:43:36;12.70;;;8.20;;
50709;SDS011;37033;49.994;21.992;2022-12-20T13:46:42;16.50;;;7.90;;
50709;SDS011;37033;49.994;21.992;2022-12-20T13:49:38;16.20;;;8.30;;
50709;SDS011;37033;49.994;21.992;2022-12-20T13:52:31;14.50;;;7.50;;
50709;SDS011;37033;49.994;21.992;2022-12-20T13:55:29;16.70;;;8.20;;
50709;SDS011;37033;49.994;21.992;2022-12-20T13:58:24;13.60;;;6.50;;
50709;SDS011;37033;49.994;21.992;2022-12-20T14:01:16;15.50;;;8.10;;
50709;SDS011;37033;49.994;21.992;2022-12-20T14:04:09;13.70;;;7.50;;
50709;SDS011;37033;49.994;21.992;2022-12-20T14:06:59;16.80;;;7.00;;
50709;SDS011;37033;49.994;21.992;2022-12-20T14:09:55;14.80;;;8.60;;
50709;SDS011;37033;49.994;21.992;2022-12-20T14:12:46;12.90;;;8.30;;
50709;SDS011;37033;49.994;21.992;2022-12-20T14:15:38;16.70;;;8.40;;
50709;SDS011;37033;49.994;21.992;2022-12-20T14:18:28;14.60;;;9.00;;
50709;SDS011;37033;49.994;21.992;2022-12-20T14:21:18;16.00;;;8.20;;
50709;SDS011;37033;49.994;21.992;2022-12-20T14:24:10;17.50;;;8.00;;
50709;SDS011;37033;49.994;21.992;2022-12-20T14:27:04;33.60;;;15.70;;
50709;SDS011;37033;49.994;21.992;2022-12-20T14:29:58;34.20;;;15.90;;
50709;SDS011;37033;49.994;21.992;2022-12-20T14:32:49;20.50;;;11.10;;
50709;SDS011;37033;49.994;21.992;2022-12-20T14:35:39;20.10;;;10.50;;
50709;SDS011;37033;49.994;21.992;2022-12-20T14:38:35;22.10;;;10.60;;
50709;SDS011;37033;49.994;21.992;2022-12-20T14:41:31;20.10;;;9.50;;
50709;SDS011;37033;49.994;21.992;2022-12-20T14:44:24;18.80;;;9.50;;
50709;SDS011;37033;49.994;21.992;2022-12-20T14:47:15;17.20;;;9.00;;
50709;SDS011;37033;49.994;21.992;2022-12-20T14:50:15;19.90;;;9.70;;
50709;SDS011;37033;49.994;21.992;2022-12-20T14:53:12;23.00;;;12.90;;
50709;SDS011;37033;49.994;21.992;2022-12-20T14:56:12;29.70;;;14.20;;
50709;SDS011;37033;49.994;21.992;2022-12-20T14:59:12;35.60;;;15.20;;
50709;SDS011;37033;49.994;21.992;2022-12-20T15:08:36;33.60;;;13.90;;
50709;SDS011;37033;49.994;21.992;2022-12-20T15:11:26;36.90;;;17.10;;
50709;SDS011;37033;49.994;21.992;2022-12-20T15:14:20;32.70;;;15.10;;
50709;SDS011;37033;49.994;21.992;2022-12-20T15:17:15;23.00;;;10.40;;
50709;SDS011;37033;49.994;21.992;2022-12-20T15:20:07;24.30;;;11.70;;
50709;SDS011;37033;49.994;21.992;2022-12-20T15:23:02;22.40;;;11.20;;
50709;SDS011;37033;49.994;21.992;2022-12-20T15:25:52;28.70;;;12.30;;
50709;SDS011;37033;49.994;21.992;2022-12-20T15:28:42;25.80;;;12.60;;
50709;SDS011;37033;49.994;21.992;2022-12-20T15:31:32;28.60;;;12.60;;
50709;SDS011;37033;49.994;21.992;2022-12-20T15:34:26;21.00;;;10.00;;
50709;SDS011;37033;49.994;21.992;2022-12-20T15:37:19;16.10;;;8.40;;
50709;SDS011;37033;49.994;21.992;2022-12-20T15:40:12;21.60;;;10.30;;
50709;SDS011;37033;49.994;21.992;2022-12-20T15:43:02;19.30;;;8.60;;
50709;SDS011;37033;49.994;21.992;2022-12-20T15:45:52;16.00;;;8.40;;
50709;SDS011;37033;49.994;21.992;2022-12-20T15:48:42;16.60;;;8.20;;
50709;SDS011;37033;49.994;21.992;2022-12-20T15:51:33;18.00;;;7.00;;
50709;SDS011;37033;49.994;21.992;2022-12-20T15:54:26;18.50;;;9.10;;
50709;SDS011;37033;49.994;21.992;2022-12-20T15:57:18;20.70;;;9.20;;
50709;SDS011;37033;49.994;21.992;2022-12-20T16:00:10;18.70;;;9.10;;
50709;SDS011;37033;49.994;21.992;2022-12-20T16:03:01;33.60;;;15.10;;
50709;SDS011;37033;49.994;21.992;2022-12-20T16:05:51;20.80;;;10.80;;
50709;SDS011;37033;49.994;21.992;2022-12-20T16:08:42;17.90;;;9.30;;
50709;SDS011;37033;49.994;21.992;2022-12-20T16:11:32;20.50;;;11.00;;
50709;SDS011;37033;49.994;21.992;2022-12-20T16:14:22;20.40;;;10.60;;
50709;SDS011;37033;49.994;21.992;2022-12-20T16:17:13;15.10;;;8.00;;
50709;SDS011;37033;49.994;21.992;2022-12-20T16:20:05;16.70;;;9.20;;
50709;SDS011;37033;49.994;21.992;2022-12-20T16:22:57;17.90;;;9.30;;
50709;SDS011;37033;49.994;21.992;2022-12-20T16:25:47;20.90;;;10.50;;
50709;SDS011;37033;49.994;21.992;2022-12-20T16:28:38;26.90;;;12.00;;
50709;SDS011;37033;49.994;21.992;2022-12-20T16:31:28;19.20;;;9.40;;
50709;SDS011;37033;49.994;21.992;2022-12-20T16:34:20;20.60;;;10.70;;
50709;SDS011;37033;49.994;21.992;2022-12-20T16:37:10;23.20;;;10.50;;
50709;SDS011;37033;49.994;21.992;2022-12-20T16:40:00;16.90;;;8.70;;
50709;SDS011;37033;49.994;21.992;2022-12-20T16:42:49;20.20;;;10.00;;
50709;SDS011;37033;49.994;21.992;2022-12-20T16:45:40;24.90;;;11.40;;
50709;SDS011;37033;49.994;21.992;2022-12-20T16:48:29;29.80;;;13.80;;
50709;SDS011;37033;49.994;21.992;2022-12-20T16:51:22;20.90;;;10.10;;
50709;SDS011;37033;49.994;21.992;2022-12-20T16:54:14;16.30;;;8.50;;
50709;SDS011;37033;49.994;21.992;2022-12-20T16:57:05;18.50;;;9.50;;
50709;SDS011;37033;49.994;21.992;2022-12-20T16:59:55;20.80;;;10.50;;
50709;SDS011;37033;49.994;21.992;2022-12-20T17:02:46;16.40;;;8.80;;
50709;SDS011;37033;49.994;21.992;2022-12-20T17:05:37;17.40;;;8.50;;
50709;SDS011;37033;49.994;21.992;2022-12-20T17:08:27;19.60;;;8.70;;
50709;SDS011;37033;49.994;21.992;2022-12-20T17:11:17;15.30;;;7.90;;
50709;SDS011;37033;49.994;21.992;2022-12-20T17:14:10;18.50;;;7.80;;
50709;SDS011;37033;49.994;21.992;2022-12-20T17:17:00;16.70;;;8.40;;
50709;SDS011;37033;49.994;21.992;2022-12-20T17:19:50;11.90;;;7.20;;
50709;SDS011;37033;49.994;21.992;2022-12-20T17:22:40;15.70;;;7.90;;
50709;SDS011;37033;49.994;21.992;2022-12-20T17:25:31;18.50;;;9.30;;
50709;SDS011;37033;49.994;21.992;2022-12-20T17:28:22;13.50;;;8.00;;
50709;SDS011;37033;49.994;21.992;2022-12-20T17:31:17;19.20;;;9.40;;